FDX5809 LFPG-EGSS
Flight info
| Callsign | FDX5809 |
|---|---|
| Flight time | 0h 47m |
| Altitude | 24000 |
| Route | OPALE DCT KESAX DCT KUNAV Y8 BANVA |
| Aircraft | A306/H-SDE3FGHIRWY/LB1 |
Departure
| Time | 2026-05-05 14:02 |
|---|---|
| Airport | Charles de Gaulle International Airport (LFPG) |
Arrival
| Time | 2026-05-05 14:50 |
|---|---|
| Airport | London Stansted Airport (EGSS) |
| Time | Latitude | Longitude | Altitude | Speed | Heading |
|---|---|---|---|---|---|
| 2026-05-05 12:57 | 49.01147 | 2.50265 | 360 ft | 0 kts | 265° |
| 2026-05-05 13:47 | 49.01148 | 2.50278 | 360 ft | 4 kts | 264° |
| 2026-05-05 13:47 | 49.01150 | 2.50319 | 360 ft | 4 kts | 265° |
| 2026-05-05 13:47 | 49.01151 | 2.50359 | 360 ft | 4 kts | 281° |
| 2026-05-05 13:47 | 49.01142 | 2.50396 | 362 ft | 4 kts | 312° |
| 2026-05-05 13:48 | 49.01125 | 2.50412 | 367 ft | 1 kts | 355° |
| 2026-05-05 13:54 | 49.01126 | 2.50412 | 368 ft | 0 kts | 355° |
| 2026-05-05 13:54 | 49.01141 | 2.50410 | 368 ft | 4 kts | 355° |
| 2026-05-05 13:54 | 49.01177 | 2.50405 | 363 ft | 6 kts | 355° |
| 2026-05-05 13:54 | 49.01230 | 2.50398 | 363 ft | 9 kts | 355° |
| 2026-05-05 13:55 | 49.01284 | 2.50390 | 360 ft | 6 kts | 355° |
| 2026-05-05 13:55 | 49.01316 | 2.50386 | 362 ft | 3 kts | 355° |
| 2026-05-05 13:55 | 49.01335 | 2.50383 | 366 ft | 5 kts | 355° |
| 2026-05-05 13:55 | 49.01364 | 2.50379 | 363 ft | 6 kts | 355° |
| 2026-05-05 13:56 | 49.01415 | 2.50396 | 365 ft | 7 kts | 30° |
| 2026-05-05 13:56 | 49.01437 | 2.50485 | 362 ft | 14 kts | 80° |
| 2026-05-05 13:56 | 49.01448 | 2.50673 | 364 ft | 21 kts | 86° |
| 2026-05-05 13:56 | 49.01458 | 2.50902 | 368 ft | 20 kts | 85° |
| 2026-05-05 13:57 | 49.01469 | 2.51081 | 366 ft | 14 kts | 84° |
| 2026-05-05 13:57 | 49.01476 | 2.51205 | 360 ft | 10 kts | 85° |
| 2026-05-05 13:57 | 49.01510 | 2.51286 | 364 ft | 12 kts | 26° |
| 2026-05-05 13:57 | 49.01595 | 2.51289 | 366 ft | 11 kts | 355° |
| 2026-05-05 13:58 | 49.01651 | 2.51282 | 367 ft | 5 kts | 355° |
| 2026-05-05 13:58 | 49.01675 | 2.51279 | 364 ft | 4 kts | 355° |
| 2026-05-05 13:58 | 49.01742 | 2.51271 | 366 ft | 15 kts | 355° |
| 2026-05-05 13:58 | 49.01836 | 2.51260 | 364 ft | 11 kts | 355° |
| 2026-05-05 13:59 | 49.01888 | 2.51254 | 360 ft | 1 kts | 356° |
| 2026-05-05 13:59 | 49.01917 | 2.51253 | 362 ft | 8 kts | 3° |
| 2026-05-05 14:00 | 49.02051 | 2.51353 | 366 ft | 10 kts | 50° |
| 2026-05-05 14:00 | 49.02069 | 2.51415 | 362 ft | 9 kts | 82° |
| 2026-05-05 14:00 | 49.02070 | 2.51429 | 360 ft | 0 kts | 83° |
| 2026-05-05 14:01 | 49.02072 | 2.51464 | 369 ft | 19 kts | 83° |
| 2026-05-05 14:01 | 49.02099 | 2.51995 | 367 ft | 79 kts | 86° |
| 2026-05-05 14:02 | 49.02158 | 2.53058 | 365 ft | 123 kts | 84° |
| 2026-05-05 14:02 | 49.02252 | 2.54618 | 368 ft | 169 kts | 81° |
| 2026-05-05 14:02 | 49.02352 | 2.56543 | 586 ft | 199 kts | 82° |
| 2026-05-05 14:02 | 49.02468 | 2.58792 | 1029 ft | 224 kts | 83° |
| 2026-05-05 14:03 | 49.02616 | 2.61258 | 1458 ft | 243 kts | 82° |
| 2026-05-05 14:03 | 49.02763 | 2.63942 | 1982 ft | 260 kts | 82° |
| 2026-05-05 14:03 | 49.02896 | 2.66623 | 3376 ft | 242 kts | 85° |
| 2026-05-05 14:03 | 49.03020 | 2.69188 | 4394 ft | 249 kts | 84° |
| 2026-05-05 14:04 | 49.03150 | 2.71928 | 4970 ft | 270 kts | 85° |
| 2026-05-05 14:04 | 49.03557 | 2.74697 | 5903 ft | 269 kts | 63° |
| 2026-05-05 14:04 | 49.04813 | 2.76750 | 6847 ft | 269 kts | 30° |
| 2026-05-05 14:04 | 49.06585 | 2.77455 | 7845 ft | 270 kts | 4° |
| 2026-05-05 14:05 | 49.08447 | 2.76971 | 8790 ft | 278 kts | 341° |
| 2026-05-05 14:05 | 49.10163 | 2.75531 | 9677 ft | 284 kts | 330° |
| 2026-05-05 14:05 | 49.11835 | 2.73851 | 10358 ft | 293 kts | 329° |
| 2026-05-05 14:05 | 49.13599 | 2.72085 | 10682 ft | 314 kts | 329° |
| 2026-05-05 14:06 | 49.15488 | 2.70229 | 10960 ft | 332 kts | 330° |
| 2026-05-05 14:06 | 49.17495 | 2.68278 | 11237 ft | 350 kts | 330° |
| 2026-05-05 14:06 | 49.19601 | 2.66244 | 11501 ft | 366 kts | 330° |
| 2026-05-05 14:06 | 49.21801 | 2.64120 | 11793 ft | 380 kts | 329° |
| 2026-05-05 14:07 | 49.24006 | 2.61825 | 12313 ft | 387 kts | 327° |
| 2026-05-05 14:07 | 49.26205 | 2.59421 | 12852 ft | 392 kts | 326° |
| 2026-05-05 14:07 | 49.28435 | 2.56970 | 13434 ft | 396 kts | 326° |
| 2026-05-05 14:07 | 49.30654 | 2.54531 | 14017 ft | 399 kts | 326° |
| 2026-05-05 14:08 | 49.32920 | 2.52042 | 14514 ft | 404 kts | 326° |
| 2026-05-05 14:08 | 49.35225 | 2.49508 | 15011 ft | 410 kts | 326° |
| 2026-05-05 14:08 | 49.37560 | 2.46940 | 15542 ft | 416 kts | 326° |
| 2026-05-05 14:08 | 49.39921 | 2.44342 | 16063 ft | 419 kts | 325° |
| 2026-05-05 14:09 | 49.42300 | 2.41721 | 16595 ft | 423 kts | 325° |
| 2026-05-05 14:09 | 49.44713 | 2.39060 | 17031 ft | 429 kts | 325° |
| 2026-05-05 14:09 | 49.47141 | 2.36380 | 17531 ft | 432 kts | 325° |
| 2026-05-05 14:09 | 49.49596 | 2.33665 | 18017 ft | 437 kts | 325° |
| 2026-05-05 14:10 | 49.52069 | 2.30928 | 18439 ft | 440 kts | 324° |
| 2026-05-05 14:10 | 49.54526 | 2.28205 | 18762 ft | 442 kts | 324° |
| 2026-05-05 14:10 | 49.57025 | 2.25433 | 18841 ft | 442 kts | 324° |
| 2026-05-05 14:10 | 49.59519 | 2.22661 | 18849 ft | 442 kts | 324° |
| 2026-05-05 14:11 | 49.62007 | 2.19893 | 18851 ft | 441 kts | 324° |
| 2026-05-05 14:11 | 49.64485 | 2.17131 | 18848 ft | 440 kts | 324° |
| 2026-05-05 14:11 | 49.66980 | 2.14348 | 18911 ft | 445 kts | 324° |
| 2026-05-05 14:11 | 49.69488 | 2.11547 | 19481 ft | 444 kts | 324° |
| 2026-05-05 14:12 | 49.71961 | 2.08782 | 19879 ft | 447 kts | 324° |
| 2026-05-05 14:12 | 49.74476 | 2.05964 | 20371 ft | 446 kts | 324° |
| 2026-05-05 14:12 | 49.76999 | 2.03135 | 20726 ft | 450 kts | 324° |
| 2026-05-05 14:12 | 49.79547 | 2.00274 | 21057 ft | 454 kts | 323° |
| 2026-05-05 14:13 | 49.82106 | 1.97397 | 21436 ft | 457 kts | 323° |
| 2026-05-05 14:13 | 49.84682 | 1.94497 | 21782 ft | 460 kts | 323° |
| 2026-05-05 14:13 | 49.87280 | 1.91569 | 22231 ft | 461 kts | 323° |
| 2026-05-05 14:13 | 49.89875 | 1.88632 | 22571 ft | 464 kts | 323° |
| 2026-05-05 14:14 | 49.92448 | 1.85597 | 22974 ft | 465 kts | 321° |
| 2026-05-05 14:14 | 49.94995 | 1.82487 | 23292 ft | 468 kts | 321° |
| 2026-05-05 14:14 | 49.97510 | 1.79363 | 23602 ft | 470 kts | 321° |
| 2026-05-05 14:14 | 50.00059 | 1.76181 | 23834 ft | 470 kts | 321° |
| 2026-05-05 14:15 | 50.02611 | 1.72996 | 23866 ft | 470 kts | 321° |
| 2026-05-05 14:15 | 50.05153 | 1.69830 | 23876 ft | 467 kts | 321° |
| 2026-05-05 14:15 | 50.07679 | 1.66659 | 23874 ft | 466 kts | 320° |
| 2026-05-05 14:15 | 50.10155 | 1.63401 | 23876 ft | 465 kts | 319° |
| 2026-05-05 14:16 | 50.12593 | 1.60098 | 23878 ft | 465 kts | 318° |
| 2026-05-05 14:16 | 50.15017 | 1.56773 | 23887 ft | 464 kts | 318° |
| 2026-05-05 14:16 | 50.17410 | 1.53479 | 23889 ft | 465 kts | 318° |
| 2026-05-05 14:16 | 50.19834 | 1.50148 | 23885 ft | 465 kts | 318° |
| 2026-05-05 14:17 | 50.22266 | 1.46813 | 23886 ft | 465 kts | 317° |
| 2026-05-05 14:17 | 50.24699 | 1.43482 | 23893 ft | 466 kts | 318° |
| 2026-05-05 14:17 | 50.27132 | 1.40150 | 23898 ft | 464 kts | 318° |
| 2026-05-05 14:17 | 50.29559 | 1.36827 | 23892 ft | 463 kts | 317° |
| 2026-05-05 14:18 | 50.31978 | 1.33512 | 23896 ft | 463 kts | 318° |
| 2026-05-05 14:18 | 50.34394 | 1.30196 | 23894 ft | 461 kts | 318° |
| 2026-05-05 14:18 | 50.36806 | 1.26882 | 23901 ft | 461 kts | 317° |
| 2026-05-05 14:18 | 50.39185 | 1.23606 | 23902 ft | 463 kts | 317° |
| 2026-05-05 14:19 | 50.41606 | 1.20268 | 23903 ft | 463 kts | 317° |
| 2026-05-05 14:19 | 50.44022 | 1.16933 | 23912 ft | 463 kts | 317° |
| 2026-05-05 14:19 | 50.46438 | 1.13594 | 23909 ft | 463 kts | 316° |
| 2026-05-05 14:19 | 50.48735 | 1.10078 | 23915 ft | 461 kts | 309° |
| 2026-05-05 14:20 | 50.50581 | 1.05991 | 23912 ft | 457 kts | 297° |
| 2026-05-05 14:20 | 50.51805 | 1.01421 | 23916 ft | 453 kts | 284° |
| 2026-05-05 14:20 | 50.52459 | 0.96595 | 23921 ft | 451 kts | 277° |
| 2026-05-05 14:20 | 50.52950 | 0.91732 | 23930 ft | 450 kts | 277° |
| 2026-05-05 14:21 | 50.53409 | 0.86929 | 23924 ft | 450 kts | 278° |
| 2026-05-05 14:21 | 50.53918 | 0.82082 | 23924 ft | 450 kts | 282° |
| 2026-05-05 14:21 | 50.54889 | 0.77399 | 23927 ft | 452 kts | 294° |
| 2026-05-05 14:21 | 50.56525 | 0.73192 | 23925 ft | 453 kts | 308° |
| 2026-05-05 14:22 | 50.58726 | 0.69654 | 23933 ft | 453 kts | 317° |
| 2026-05-05 14:22 | 50.61121 | 0.66420 | 23930 ft | 453 kts | 319° |
| 2026-05-05 14:22 | 50.63536 | 0.63227 | 23935 ft | 453 kts | 319° |
| 2026-05-05 14:22 | 50.65947 | 0.60028 | 23929 ft | 453 kts | 319° |
| 2026-05-05 14:23 | 50.68353 | 0.56820 | 23937 ft | 454 kts | 319° |
| 2026-05-05 14:23 | 50.70745 | 0.53617 | 23940 ft | 460 kts | 319° |
| 2026-05-05 14:23 | 50.73194 | 0.50330 | 23936 ft | 465 kts | 319° |
| 2026-05-05 14:23 | 50.75658 | 0.47015 | 23936 ft | 467 kts | 319° |
| 2026-05-05 14:24 | 50.78129 | 0.43685 | 23935 ft | 466 kts | 319° |
| 2026-05-05 14:24 | 50.80588 | 0.40365 | 23944 ft | 463 kts | 319° |
| 2026-05-05 14:24 | 50.83014 | 0.37085 | 23940 ft | 462 kts | 319° |
| 2026-05-05 14:24 | 50.85465 | 0.33767 | 23964 ft | 462 kts | 319° |
| 2026-05-05 14:25 | 50.87903 | 0.30459 | 23964 ft | 459 kts | 319° |
| 2026-05-05 14:25 | 50.90291 | 0.27216 | 23619 ft | 446 kts | 319° |
| 2026-05-05 14:25 | 50.92602 | 0.24073 | 22700 ft | 443 kts | 319° |
| 2026-05-05 14:25 | 50.94928 | 0.20904 | 21857 ft | 438 kts | 319° |
| 2026-05-05 14:26 | 50.97226 | 0.17772 | 21130 ft | 432 kts | 319° |
| 2026-05-05 14:26 | 50.99478 | 0.14696 | 20515 ft | 424 kts | 320° |
| 2026-05-05 14:26 | 51.01712 | 0.11732 | 20100 ft | 412 kts | 322° |
| 2026-05-05 14:26 | 51.04008 | 0.09081 | 19660 ft | 404 kts | 325° |
| 2026-05-05 14:27 | 51.06309 | 0.06537 | 19323 ft | 403 kts | 326° |
| 2026-05-05 14:27 | 51.08617 | 0.03995 | 19013 ft | 403 kts | 326° |
| 2026-05-05 14:27 | 51.10882 | 0.01494 | 18695 ft | 402 kts | 326° |
| 2026-05-05 14:27 | 51.13176 | -0.01046 | 18315 ft | 401 kts | 326° |
| 2026-05-05 14:28 | 51.15457 | -0.03574 | 17960 ft | 398 kts | 326° |
| 2026-05-05 14:28 | 51.17722 | -0.06088 | 17654 ft | 396 kts | 326° |
| 2026-05-05 14:28 | 51.19974 | -0.08592 | 17351 ft | 394 kts | 326° |
| 2026-05-05 14:28 | 51.22212 | -0.11086 | 17039 ft | 392 kts | 326° |
| 2026-05-05 14:29 | 51.24443 | -0.13573 | 16733 ft | 390 kts | 326° |
| 2026-05-05 14:29 | 51.26666 | -0.16054 | 16412 ft | 389 kts | 326° |
| 2026-05-05 14:29 | 51.28847 | -0.18492 | 16119 ft | 387 kts | 326° |
| 2026-05-05 14:29 | 51.31047 | -0.20954 | 15829 ft | 385 kts | 326° |
| 2026-05-05 14:30 | 51.33231 | -0.23400 | 15555 ft | 383 kts | 326° |
| 2026-05-05 14:30 | 51.35409 | -0.25843 | 15250 ft | 381 kts | 326° |
| 2026-05-05 14:30 | 51.37573 | -0.28273 | 14951 ft | 379 kts | 326° |
| 2026-05-05 14:30 | 51.39740 | -0.30663 | 14652 ft | 377 kts | 329° |
| 2026-05-05 14:31 | 51.42082 | -0.32406 | 14366 ft | 373 kts | 344° |
| 2026-05-05 14:31 | 51.44657 | -0.32898 | 14071 ft | 370 kts | 3° |
| 2026-05-05 14:31 | 51.47152 | -0.32036 | 13795 ft | 368 kts | 21° |
| 2026-05-05 14:31 | 51.49484 | -0.30386 | 13469 ft | 364 kts | 26° |
| 2026-05-05 14:32 | 51.51732 | -0.28641 | 13166 ft | 363 kts | 26° |
| 2026-05-05 14:32 | 51.53861 | -0.26981 | 12912 ft | 362 kts | 26° |
| 2026-05-05 14:32 | 51.56132 | -0.25221 | 12610 ft | 361 kts | 26° |
| 2026-05-05 14:32 | 51.58373 | -0.23490 | 12399 ft | 352 kts | 25° |
| 2026-05-05 14:33 | 51.60530 | -0.21827 | 12243 ft | 338 kts | 25° |
| 2026-05-05 14:33 | 51.62597 | -0.20233 | 11977 ft | 328 kts | 25° |
| 2026-05-05 14:33 | 51.64550 | -0.18728 | 11754 ft | 318 kts | 25° |
| 2026-05-05 14:33 | 51.66455 | -0.17259 | 11498 ft | 310 kts | 25° |
| 2026-05-05 14:34 | 51.68373 | -0.15779 | 11250 ft | 302 kts | 25° |
| 2026-05-05 14:34 | 51.70231 | -0.14344 | 11019 ft | 294 kts | 25° |
| 2026-05-05 14:34 | 51.72056 | -0.12935 | 10790 ft | 289 kts | 25° |
| 2026-05-05 14:34 | 51.73866 | -0.11534 | 10552 ft | 288 kts | 25° |
| 2026-05-05 14:35 | 51.75684 | -0.10188 | 10318 ft | 287 kts | 23° |
| 2026-05-05 14:35 | 51.76892 | -0.09334 | 10120 ft | 287 kts | 23° |
| 2026-05-05 14:35 | 51.79278 | -0.07665 | 9794 ft | 285 kts | 22° |
| 2026-05-05 14:35 | 51.81096 | -0.06394 | 9560 ft | 284 kts | 23° |
| 2026-05-05 14:36 | 51.82904 | -0.05128 | 9331 ft | 283 kts | 22° |
| 2026-05-05 14:36 | 51.84684 | -0.03879 | 9101 ft | 282 kts | 22° |
| 2026-05-05 14:36 | 51.86479 | -0.02619 | 8857 ft | 280 kts | 23° |
| 2026-05-05 14:36 | 51.88268 | -0.01361 | 8645 ft | 278 kts | 23° |
| 2026-05-05 14:37 | 51.90001 | -0.00142 | 8478 ft | 270 kts | 23° |
| 2026-05-05 14:37 | 51.91709 | 0.01060 | 8275 ft | 263 kts | 23° |
| 2026-05-05 14:37 | 51.93369 | 0.02230 | 8082 ft | 257 kts | 23° |
| 2026-05-05 14:37 | 51.94991 | 0.03375 | 7877 ft | 251 kts | 23° |
| 2026-05-05 14:38 | 51.96580 | 0.04497 | 7655 ft | 246 kts | 23° |
| 2026-05-05 14:38 | 51.98121 | 0.05572 | 7479 ft | 241 kts | 21° |
| 2026-05-05 14:38 | 51.99726 | 0.06205 | 7283 ft | 235 kts | 6° |
| 2026-05-05 14:38 | 52.01348 | 0.06256 | 7089 ft | 234 kts | 353° |
| 2026-05-05 14:39 | 52.02874 | 0.05340 | 6861 ft | 237 kts | 326° |
| 2026-05-05 14:39 | 52.03928 | 0.03297 | 6694 ft | 241 kts | 295° |
| 2026-05-05 14:39 | 52.04194 | 0.00627 | 6504 ft | 243 kts | 264° |
| 2026-05-05 14:39 | 52.03591 | -0.01873 | 6292 ft | 245 kts | 234° |
| 2026-05-05 14:40 | 52.02427 | -0.03889 | 6118 ft | 245 kts | 224° |
| 2026-05-05 14:40 | 52.01121 | -0.05674 | 5958 ft | 246 kts | 214° |
| 2026-05-05 14:40 | 51.99535 | -0.06636 | 5670 ft | 245 kts | 185° |
| 2026-05-05 14:40 | 51.97887 | -0.06170 | 5377 ft | 241 kts | 153° |
| 2026-05-05 14:41 | 51.96625 | -0.04475 | 5112 ft | 237 kts | 126° |
| 2026-05-05 14:41 | 51.95699 | -0.02289 | 4848 ft | 235 kts | 120° |
| 2026-05-05 14:41 | 51.94830 | -0.00053 | 4579 ft | 234 kts | 120° |
| 2026-05-05 14:41 | 51.93812 | 0.02001 | 4312 ft | 235 kts | 137° |
| 2026-05-05 14:42 | 51.92374 | 0.03136 | 4042 ft | 238 kts | 168° |
| 2026-05-05 14:42 | 51.90720 | 0.03019 | 3782 ft | 239 kts | 190° |
| 2026-05-05 14:42 | 51.89107 | 0.02404 | 3391 ft | 238 kts | 193° |
| 2026-05-05 14:42 | 51.87501 | 0.01722 | 3179 ft | 240 kts | 193° |
| 2026-05-05 14:43 | 51.85898 | 0.01047 | 2976 ft | 239 kts | 194° |
| 2026-05-05 14:43 | 51.84294 | 0.00368 | 2761 ft | 233 kts | 193° |
| 2026-05-05 14:43 | 51.83270 | -0.00067 | 2644 ft | 226 kts | 194° |
| 2026-05-05 14:43 | 51.81798 | -0.00685 | 2568 ft | 211 kts | 194° |
| 2026-05-05 14:44 | 51.79994 | -0.01431 | 2528 ft | 195 kts | 192° |
| 2026-05-05 14:44 | 51.78656 | -0.01606 | 2534 ft | 193 kts | 169° |
| 2026-05-05 14:44 | 51.77451 | -0.00780 | 2539 ft | 188 kts | 136° |
| 2026-05-05 14:44 | 51.76723 | 0.00889 | 2502 ft | 180 kts | 106° |
| 2026-05-05 14:45 | 51.76618 | 0.02876 | 2518 ft | 178 kts | 81° |
| 2026-05-05 14:45 | 51.76772 | 0.04174 | 2518 ft | 177 kts | 75° |
| 2026-05-05 14:45 | 51.77186 | 0.06033 | 2502 ft | 176 kts | 60° |
| 2026-05-05 14:45 | 51.77919 | 0.07596 | 2503 ft | 173 kts | 45° |
| 2026-05-05 14:46 | 51.78984 | 0.09225 | 2508 ft | 148 kts | 43° |
| 2026-05-05 14:46 | 51.79719 | 0.10320 | 2507 ft | 138 kts | 43° |
| 2026-05-05 14:46 | 51.80408 | 0.11358 | 2390 ft | 134 kts | 43° |
| 2026-05-05 14:46 | 51.81081 | 0.12375 | 2185 ft | 132 kts | 42° |
| 2026-05-05 14:47 | 51.81531 | 0.13044 | 2061 ft | 133 kts | 42° |
| 2026-05-05 14:47 | 51.82215 | 0.14068 | 1885 ft | 135 kts | 42° |
| 2026-05-05 14:47 | 51.82903 | 0.15099 | 1651 ft | 135 kts | 43° |
| 2026-05-05 14:47 | 51.83585 | 0.16143 | 1449 ft | 134 kts | 43° |
| 2026-05-05 14:48 | 51.84258 | 0.17160 | 1260 ft | 132 kts | 43° |
| 2026-05-05 14:48 | 51.85149 | 0.18525 | 1024 ft | 136 kts | 42° |
| 2026-05-05 14:48 | 51.85623 | 0.19224 | 940 ft | 136 kts | 42° |
| 2026-05-05 14:48 | 51.86325 | 0.20248 | 779 ft | 136 kts | 42° |
| 2026-05-05 14:49 | 51.87006 | 0.21256 | 566 ft | 133 kts | 43° |
| 2026-05-05 14:49 | 51.87692 | 0.22277 | 383 ft | 133 kts | 43° |
| 2026-05-05 14:49 | 51.88316 | 0.23207 | 337 ft | 107 kts | 43° |
| 2026-05-05 14:49 | 51.88759 | 0.23870 | 352 ft | 52 kts | 44° |
| 2026-05-05 14:50 | 51.88930 | 0.24125 | 356 ft | 19 kts | 42° |
| 2026-05-05 14:50 | 51.89026 | 0.24296 | 353 ft | 21 kts | 57° |
| 2026-05-05 14:50 | 51.89102 | 0.24519 | 352 ft | 24 kts | 65° |
| 2026-05-05 14:50 | 51.89148 | 0.24698 | 358 ft | 8 kts | 69° |
| 2026-05-05 14:51 | 51.89150 | 0.24708 | 358 ft | 0 kts | 69° |
| 2026-05-05 14:52 | 51.89162 | 0.24761 | 348 ft | 12 kts | 70° |
| 2026-05-05 14:52 | 51.89161 | 0.24859 | 357 ft | 8 kts | 117° |
| 2026-05-05 14:53 | 51.89124 | 0.24885 | 348 ft | 5 kts | 184° |
| 2026-05-05 14:53 | 51.89096 | 0.24861 | 359 ft | 4 kts | 220° |
| 2026-05-05 14:53 | 51.89062 | 0.24815 | 352 ft | 8 kts | 220° |
| 2026-05-05 14:53 | 51.89019 | 0.24752 | 356 ft | 13 kts | 224° |
| 2026-05-05 14:54 | 51.88943 | 0.24627 | 359 ft | 13 kts | 223° |
| 2026-05-05 14:54 | 51.88863 | 0.24594 | 351 ft | 13 kts | 153° |
| 2026-05-05 14:54 | 51.88800 | 0.24663 | 358 ft | 9 kts | 170° |
| 2026-05-05 14:54 | 51.88732 | 0.24612 | 360 ft | 11 kts | 223° |
| 2026-05-05 14:55 | 51.88680 | 0.24533 | 358 ft | 7 kts | 223° |
| 2026-05-05 14:55 | 51.88667 | 0.24513 | 360 ft | 9 kts | 223° |
| 2026-05-05 14:55 | 51.88596 | 0.24407 | 357 ft | 12 kts | 221° |
| 2026-05-05 14:55 | 51.88546 | 0.24383 | 353 ft | 6 kts | 173° |
| 2026-05-05 14:56 | 51.88509 | 0.24424 | 346 ft | 1 kts | 120° |
| 2026-05-05 14:56 | 51.88511 | 0.24483 | 342 ft | 7 kts | 64° |
| 2026-05-05 14:56 | 51.88542 | 0.24530 | 352 ft | 3 kts | 39° |
| 2026-05-05 14:56 | 51.88550 | 0.24542 | 350 ft | 3 kts | 42° |
| 2026-05-05 14:57 | 51.88563 | 0.24560 | 351 ft | 0 kts | 41° |